createdAt,value
2022-11-16T00:00:24.012Z,176.40
2022-11-16T00:01:19.686Z,176.77
2022-11-16T00:02:14.925Z,178.67
2022-11-16T00:03:10.723Z,177.15
2022-11-16T00:04:05.876Z,177.34
2022-11-16T00:05:01.230Z,176.96
2022-11-16T00:05:56.880Z,178.10
2022-11-16T00:06:52.164Z,178.10
2022-11-16T00:07:48.158Z,177.90
2022-11-16T00:08:42.497Z,178.67
2022-11-16T00:09:37.794Z,178.86
2022-11-16T00:10:32.868Z,178.67
2022-11-16T00:11:28.075Z,180.40
2022-11-16T00:12:26.296Z,180.21
2022-11-16T00:13:21.479Z,181.98
2022-11-16T00:14:16.838Z,182.58
2022-11-16T00:15:11.889Z,184.39
2022-11-16T00:16:06.925Z,183.58
2022-11-16T00:17:02.022Z,183.99
2022-11-16T00:17:57.140Z,185.01
2022-11-16T00:18:52.150Z,184.80
2022-11-16T00:19:47.250Z,184.60
2022-11-16T00:20:42.307Z,183.38
2022-11-16T00:21:37.492Z,184.39
2022-11-16T00:22:32.620Z,185.21
2022-11-16T00:23:27.660Z,184.19
2022-11-16T00:24:22.746Z,184.60
2022-11-16T00:25:17.806Z,183.99
2022-11-16T00:26:13.137Z,185.83
2022-11-16T00:27:08.087Z,184.19
2022-11-16T00:28:03.148Z,185.21
2022-11-16T00:28:58.309Z,185.83
2022-11-16T00:29:53.151Z,185.01
2022-11-16T00:30:48.221Z,185.42
2022-11-16T00:31:43.268Z,185.83
2022-11-16T00:32:38.282Z,185.94
2022-11-16T00:33:33.516Z,186.57
2022-11-16T00:34:28.617Z,186.68
2022-11-16T00:35:23.800Z,186.15
2022-11-16T00:36:19.051Z,188.07
2022-11-16T00:37:14.174Z,187.21
2022-11-16T00:38:09.143Z,186.79
2022-11-16T00:39:04.224Z,186.26
2022-11-16T00:39:59.324Z,186.47
2022-11-16T00:40:54.422Z,187.53
2022-11-16T00:41:49.454Z,187.53
2022-11-16T00:42:45.763Z,187.10
2022-11-16T00:43:40.960Z,186.89
2022-11-16T00:44:36.933Z,187.21
2022-11-16T00:45:31.858Z,187.64
2022-11-16T00:46:27.050Z,188.94
2022-11-16T00:47:22.855Z,188.72
2022-11-16T00:48:18.080Z,189.81
2022-11-16T00:49:13.940Z,187.75
2022-11-16T00:50:09.009Z,188.61
2022-11-16T00:51:04.230Z,190.25
2022-11-16T00:52:00.018Z,188.72
2022-11-16T00:52:55.225Z,189.04
2022-11-16T00:53:50.557Z,188.61
2022-11-16T00:54:46.898Z,187.21
2022-11-16T00:55:42.068Z,188.72
2022-11-16T00:56:37.834Z,188.07
2022-11-16T00:57:33.005Z,187.85
2022-11-16T00:58:28.493Z,186.89
2022-11-16T00:59:24.223Z,187.32
2022-11-16T01:00:19.393Z,185.94
2022-11-16T01:01:15.240Z,185.41
2022-11-16T01:02:10.464Z,187.00
2022-11-16T01:03:05.751Z,188.72
2022-11-16T01:04:01.539Z,189.70
2022-11-16T01:04:56.678Z,191.58
2022-11-16T01:05:51.853Z,191.47
2022-11-16T01:06:48.288Z,190.80
2022-11-16T01:07:43.532Z,190.14
2022-11-16T01:08:39.586Z,189.92
2022-11-16T01:09:34.495Z,191.25
2022-11-16T01:10:29.724Z,191.47
2022-11-16T01:11:25.532Z,193.05
2022-11-16T01:12:20.762Z,192.37
2022-11-16T01:13:16.572Z,194.31
2022-11-16T01:14:12.175Z,197.35
2022-11-16T01:15:07.168Z,197.82
2022-11-16T01:16:03.000Z,200.60
2022-11-16T01:16:58.402Z,203.21
2022-11-16T01:17:53.419Z,205.89
2022-11-16T01:18:50.001Z,207.06
2022-11-16T01:19:45.287Z,206.67
2022-11-16T01:20:41.000Z,209.97
2022-11-16T01:21:36.233Z,212.01
2022-11-16T01:22:31.432Z,212.42
2022-11-16T01:23:27.207Z,212.28
2022-11-16T01:24:22.404Z,213.11
2022-11-16T01:25:18.368Z,216.63
2022-11-16T01:26:13.474Z,216.06
2022-11-16T01:27:08.700Z,219.38
2022-11-16T01:28:04.501Z,219.82
2022-11-16T01:28:59.696Z,220.26
2022-11-16T01:29:55.004Z,220.71
2022-11-16T01:30:51.323Z,220.26
2022-11-16T01:31:46.558Z,220.86
2022-11-16T01:32:42.353Z,220.12
2022-11-16T01:33:37.542Z,221.15
2022-11-16T01:34:32.899Z,219.38
2022-11-16T01:35:28.599Z,218.94
2022-11-16T01:36:23.791Z,218.94
2022-11-16T01:37:18.992Z,219.23
2022-11-16T01:38:14.172Z,219.09
2022-11-16T01:39:10.073Z,219.23
2022-11-16T01:40:05.182Z,219.38
2022-11-16T01:41:00.462Z,220.86
2022-11-16T01:41:56.780Z,218.65
2022-11-16T01:42:51.993Z,218.79
2022-11-16T01:43:47.784Z,216.20
2022-11-16T01:44:42.951Z,217.78
2022-11-16T01:45:38.417Z,218.65
2022-11-16T01:46:34.079Z,220.86
2022-11-16T01:47:29.325Z,220.86
2022-11-16T01:48:25.199Z,221.75
2022-11-16T01:49:20.288Z,222.96
2022-11-16T01:50:15.758Z,224.95
2022-11-16T01:51:11.425Z,223.72
2022-11-16T01:52:06.617Z,224.79
2022-11-16T01:53:01.795Z,227.28
2022-11-16T01:53:58.263Z,228.55
2022-11-16T01:54:53.413Z,228.23
2022-11-16T01:55:48.609Z,230.31
2022-11-16T01:56:43.806Z,230.64
2022-11-16T01:57:39.956Z,232.43
2022-11-16T01:58:34.495Z,234.09
2022-11-16T01:59:30.240Z,235.60
2022-11-16T02:00:25.303Z,235.94
2022-11-16T02:01:20.529Z,234.60
2022-11-16T02:02:15.783Z,237.31
2022-11-16T02:03:12.063Z,236.97
2022-11-16T02:04:07.231Z,236.80
2022-11-16T02:05:02.472Z,237.31
2022-11-16T02:06:01.859Z,233.43
2022-11-16T02:06:57.252Z,235.94
2022-11-16T02:07:52.207Z,235.77
2022-11-16T02:08:47.419Z,236.97
2022-11-16T02:09:42.440Z,234.93
2022-11-16T02:10:37.533Z,238.34
2022-11-16T02:11:32.624Z,237.65
2022-11-16T02:12:27.639Z,240.44
2022-11-16T02:13:22.726Z,235.77
2022-11-16T02:14:17.923Z,238.17
2022-11-16T02:15:12.970Z,241.32
2022-11-16T02:16:08.042Z,241.15
2022-11-16T02:17:03.134Z,237.14
2022-11-16T02:17:58.212Z,239.91
2022-11-16T02:18:53.255Z,241.68
2022-11-16T02:19:48.441Z,243.11
2022-11-16T02:20:43.515Z,242.75
2022-11-16T02:21:38.544Z,241.68
2022-11-16T02:22:33.656Z,241.68
2022-11-16T02:23:28.718Z,243.29
2022-11-16T02:24:23.742Z,245.29
2022-11-16T02:25:18.813Z,245.48
2022-11-16T02:26:13.830Z,245.66
2022-11-16T02:27:08.886Z,244.74
2022-11-16T02:28:03.961Z,246.77
2022-11-16T02:28:59.013Z,242.57
2022-11-16T02:29:54.059Z,243.83
2022-11-16T02:30:49.131Z,241.50
2022-11-16T02:31:44.568Z,240.97
2022-11-16T02:32:39.655Z,241.15
2022-11-16T02:33:34.678Z,243.29
2022-11-16T02:34:29.736Z,241.86
2022-11-16T02:35:24.802Z,243.29
2022-11-16T02:36:19.971Z,243.83
2022-11-16T02:37:15.046Z,240.97
2022-11-16T02:38:10.546Z,242.21
2022-11-16T02:39:05.056Z,243.65
2022-11-16T02:40:00.128Z,245.84
2022-11-16T02:40:55.148Z,244.93
2022-11-16T02:41:50.287Z,244.38
2022-11-16T02:42:45.299Z,243.65
2022-11-16T02:43:40.391Z,242.75
2022-11-16T02:44:35.423Z,241.68
2022-11-16T02:45:30.461Z,243.29
2022-11-16T02:46:25.499Z,239.74
2022-11-16T02:47:20.536Z,240.44
2022-11-16T02:48:17.285Z,237.82
2022-11-16T02:49:12.453Z,235.10
2022-11-16T02:50:08.402Z,236.11
2022-11-16T02:51:02.883Z,235.94
2022-11-16T02:51:58.231Z,236.62
2022-11-16T02:52:53.704Z,235.60
2022-11-16T02:53:48.634Z,234.93
2022-11-16T02:54:43.839Z,237.14
2022-11-16T02:55:39.160Z,239.74
2022-11-16T02:56:34.199Z,238.00
2022-11-16T02:57:29.427Z,238.86
2022-11-16T02:58:24.688Z,239.74
2022-11-16T02:59:19.854Z,239.74
2022-11-16T03:00:15.033Z,240.44
2022-11-16T03:01:10.149Z,236.62
2022-11-16T03:02:05.235Z,235.27
2022-11-16T03:03:00.274Z,233.93
2022-11-16T03:03:58.237Z,230.96
2022-11-16T03:04:53.402Z,230.31
2022-11-16T03:05:48.603Z,228.87
2022-11-16T03:06:43.794Z,227.12
2022-11-16T03:07:38.985Z,227.91
2022-11-16T03:08:35.208Z,227.44
2022-11-16T03:09:30.109Z,225.56
2022-11-16T03:10:25.445Z,227.76
2022-11-16T03:11:21.191Z,229.19
2022-11-16T03:12:16.402Z,230.15
2022-11-16T03:13:12.604Z,232.93
2022-11-16T03:14:07.606Z,232.76
2022-11-16T03:15:02.645Z,236.62
2022-11-16T03:15:58.541Z,237.48
2022-11-16T03:16:53.747Z,239.04
2022-11-16T03:17:49.075Z,238.00
2022-11-16T03:18:45.396Z,239.21
2022-11-16T03:19:40.599Z,237.31
2022-11-16T03:20:36.380Z,233.93
2022-11-16T03:21:31.610Z,235.94
2022-11-16T03:22:26.940Z,233.93
2022-11-16T03:23:23.442Z,233.76
2022-11-16T03:24:17.803Z,234.93
2022-11-16T03:25:13.600Z,237.14
2022-11-16T03:26:08.802Z,237.14
2022-11-16T03:27:04.169Z,238.34
2022-11-16T03:27:59.797Z,239.04
2022-11-16T03:28:55.004Z,238.52
2022-11-16T03:29:50.206Z,238.86
2022-11-16T03:30:46.605Z,236.97
2022-11-16T03:31:41.928Z,241.15
2022-11-16T03:32:37.665Z,240.26
2022-11-16T03:33:32.824Z,243.11
2022-11-16T03:34:28.067Z,241.68
2022-11-16T03:35:23.814Z,242.93
2022-11-16T03:36:19.100Z,241.86
2022-11-16T03:37:14.883Z,241.68
2022-11-16T03:38:10.066Z,243.29
2022-11-16T03:39:05.500Z,243.47
2022-11-16T03:40:01.211Z,245.11
2022-11-16T03:40:56.455Z,247.51
2022-11-16T03:41:51.699Z,248.26
2022-11-16T03:42:48.052Z,246.21
2022-11-16T03:43:43.271Z,249.21
2022-11-16T03:44:39.031Z,249.21
2022-11-16T03:45:34.243Z,249.58
2022-11-16T03:46:29.762Z,249.77
2022-11-16T03:47:25.294Z,248.07
2022-11-16T03:48:20.519Z,249.58
2022-11-16T03:49:16.398Z,247.33
2022-11-16T03:50:11.474Z,246.77
2022-11-16T03:51:06.690Z,246.58
2022-11-16T03:52:02.517Z,245.84
2022-11-16T03:52:57.756Z,247.33
2022-11-16T03:53:53.078Z,247.33
2022-11-16T03:54:49.419Z,250.35
2022-11-16T03:55:49.593Z,249.96
2022-11-16T03:56:42.107Z,249.58
2022-11-16T03:57:35.637Z,248.45
2022-11-16T03:58:31.424Z,252.27
2022-11-16T03:59:26.790Z,252.46
2022-11-16T04:00:22.024Z,252.08
2022-11-16T04:01:17.849Z,254.03
2022-11-16T04:02:13.035Z,253.24
2022-11-16T04:03:08.407Z,253.83
2022-11-16T04:04:04.125Z,254.62
2022-11-16T04:04:59.336Z,256.21
2022-11-16T04:05:54.535Z,257.01
2022-11-16T04:06:51.041Z,257.62
2022-11-16T04:07:46.319Z,258.84
2022-11-16T04:08:41.513Z,258.63
2022-11-16T04:09:36.604Z,255.41
2022-11-16T04:10:31.716Z,257.01
2022-11-16T04:11:26.761Z,259.04
2022-11-16T04:12:21.905Z,259.45
2022-11-16T04:13:16.882Z,260.69
2022-11-16T04:14:11.974Z,259.66
2022-11-16T04:15:07.056Z,260.27
2022-11-16T04:16:02.149Z,262.78
2022-11-16T04:16:57.134Z,262.78
2022-11-16T04:17:52.289Z,261.10
2022-11-16T04:18:47.210Z,262.57
2022-11-16T04:19:42.273Z,261.94
2022-11-16T04:20:37.324Z,263.62
2022-11-16T04:21:32.593Z,263.62
2022-11-16T04:22:30.507Z,263.20
2022-11-16T04:23:25.586Z,263.20
2022-11-16T04:24:20.800Z,262.15
2022-11-16T04:25:15.862Z,262.99
2022-11-16T04:26:11.095Z,265.11
2022-11-16T04:27:06.062Z,264.26
2022-11-16T04:28:01.115Z,264.05
2022-11-16T04:28:56.220Z,262.57
2022-11-16T04:29:51.308Z,264.05
2022-11-16T04:30:46.374Z,264.90
2022-11-16T04:31:41.463Z,262.15
2022-11-16T04:32:36.554Z,262.99
2022-11-16T04:33:31.677Z,259.86
2022-11-16T04:34:26.768Z,256.61
2022-11-16T04:35:21.834Z,255.81
2022-11-16T04:36:20.539Z,253.64
2022-11-16T04:37:11.931Z,251.30
2022-11-16T04:38:07.010Z,219.97
2022-11-16T04:39:02.782Z,214.79
2022-11-16T04:39:57.995Z,228.39
2022-11-16T04:40:53.201Z,233.93
2022-11-16T04:41:49.114Z,238.86
2022-11-16T04:42:44.181Z,243.47
2022-11-16T04:43:40.203Z,244.56
2022-11-16T04:44:35.280Z,247.70
2022-11-16T04:45:30.404Z,246.58
2022-11-16T04:46:26.196Z,246.77
2022-11-16T04:47:21.482Z,246.77
2022-11-16T04:48:16.793Z,247.33
2022-11-16T04:49:13.140Z,245.29
2022-11-16T04:50:08.366Z,246.21
2022-11-16T04:51:04.657Z,248.45
2022-11-16T04:51:59.395Z,250.92
2022-11-16T04:52:54.783Z,249.96
2022-11-16T04:53:50.414Z,250.73
2022-11-16T04:54:45.613Z,252.66
2022-11-16T04:55:41.426Z,253.44
2022-11-16T04:56:36.635Z,254.82
2022-11-16T04:57:32.017Z,258.02
2022-11-16T04:58:27.663Z,257.42
2022-11-16T04:59:22.881Z,260.69
2022-11-16T05:00:18.085Z,263.83
2022-11-16T05:01:14.572Z,262.78
2022-11-16T05:02:09.804Z,263.62
2022-11-16T05:03:05.564Z,264.90
2022-11-16T05:04:00.731Z,265.11
2022-11-16T05:04:55.970Z,267.93
2022-11-16T05:05:51.734Z,268.80
2022-11-16T05:06:47.089Z,269.47
2022-11-16T05:07:42.760Z,271.25
2022-11-16T05:08:37.958Z,266.84
2022-11-16T05:09:33.374Z,269.02
2022-11-16T05:10:29.386Z,269.24
2022-11-16T05:11:24.364Z,265.97
2022-11-16T05:12:19.582Z,263.41
2022-11-16T05:13:15.989Z,256.81
2022-11-16T05:14:11.260Z,258.63
2022-11-16T05:15:07.040Z,257.21
2022-11-16T05:16:02.294Z,258.63
2022-11-16T05:16:57.500Z,260.27
2022-11-16T05:17:53.308Z,262.78
2022-11-16T05:18:48.518Z,267.05
2022-11-16T05:19:44.375Z,264.90
2022-11-16T05:20:39.488Z,265.97
2022-11-16T05:21:34.697Z,265.33
2022-11-16T05:22:30.476Z,269.47
2022-11-16T05:23:25.695Z,268.58
2022-11-16T05:24:21.074Z,269.24
2022-11-16T05:25:17.433Z,269.24
2022-11-16T05:26:12.653Z,273.28
2022-11-16T05:27:08.462Z,271.92
2022-11-16T05:28:03.637Z,266.40
2022-11-16T05:28:59.130Z,269.69
2022-11-16T05:29:54.791Z,269.47
2022-11-16T05:30:50.022Z,270.58
2022-11-16T05:31:45.824Z,270.13
2022-11-16T05:32:41.038Z,270.80
2022-11-16T05:33:36.383Z,273.28
2022-11-16T05:34:32.046Z,273.28
2022-11-16T05:35:27.252Z,272.15
2022-11-16T05:36:22.539Z,271.92
2022-11-16T05:37:18.728Z,264.68
2022-11-16T05:38:13.892Z,264.26
2022-11-16T05:39:09.567Z,264.47
2022-11-16T05:40:04.847Z,263.41
2022-11-16T05:41:00.601Z,261.94
2022-11-16T05:41:55.799Z,261.73
2022-11-16T05:42:51.216Z,263.20
2022-11-16T05:43:46.899Z,260.07
2022-11-16T05:44:42.148Z,264.90
2022-11-16T05:45:37.392Z,262.15
2022-11-16T05:46:33.867Z,262.36
2022-11-16T05:47:29.303Z,262.78
2022-11-16T05:48:24.916Z,262.99
2022-11-16T05:49:20.157Z,262.15
2022-11-16T05:50:16.384Z,260.07
2022-11-16T05:51:11.227Z,255.01
2022-11-16T05:52:06.476Z,258.43
2022-11-16T05:53:02.234Z,256.41
2022-11-16T05:53:57.403Z,246.21
2022-11-16T05:54:52.602Z,228.07
2022-11-16T05:55:47.850Z,216.91
2022-11-16T05:56:43.244Z,220.71
2022-11-16T05:57:38.211Z,227.12
2022-11-16T05:58:33.734Z,237.48
2022-11-16T05:59:28.296Z,242.04
2022-11-16T06:00:27.230Z,246.40
2022-11-16T06:02:49.287Z,220.41
2022-11-16T06:03:44.253Z,231.29
2022-11-16T06:04:38.702Z,238.00
2022-11-16T06:05:39.034Z,245.48
2022-11-16T06:06:30.081Z,250.73
2022-11-16T06:07:24.415Z,258.43
2022-11-16T06:08:19.563Z,261.10
2022-11-16T06:09:14.842Z,263.41
2022-11-16T06:10:10.034Z,265.33
2022-11-16T06:11:05.436Z,264.05
2022-11-16T06:12:00.799Z,263.41
2022-11-16T06:12:55.995Z,262.57
2022-11-16T06:13:51.241Z,262.57
2022-11-16T06:14:46.451Z,263.62
2022-11-16T06:15:41.713Z,262.57
2022-11-16T06:16:36.956Z,261.31
2022-11-16T06:17:32.237Z,260.69
2022-11-16T06:18:27.507Z,259.86
2022-11-16T06:19:22.739Z,263.62
2022-11-16T06:20:18.171Z,270.35
2022-11-16T06:21:13.238Z,272.37
2022-11-16T06:22:08.565Z,274.20
2022-11-16T06:23:03.808Z,274.65
2022-11-16T06:23:59.057Z,271.70
2022-11-16T06:24:54.315Z,269.69
2022-11-16T06:25:49.530Z,272.15
2022-11-16T06:26:44.823Z,270.13
2022-11-16T06:27:40.138Z,267.49
2022-11-16T06:28:35.622Z,263.41
2022-11-16T06:29:30.829Z,264.47
2022-11-16T06:30:26.158Z,263.62
2022-11-16T06:31:21.474Z,262.57
2022-11-16T06:32:16.895Z,262.36
2022-11-16T06:33:12.085Z,264.05
2022-11-16T06:34:07.371Z,265.97
2022-11-16T06:35:02.713Z,265.11
2022-11-16T06:35:58.008Z,260.48
2022-11-16T06:36:53.308Z,266.40
2022-11-16T06:37:48.633Z,269.02
2022-11-16T06:38:43.932Z,270.80
2022-11-16T06:39:39.262Z,270.80
2022-11-16T06:40:34.596Z,265.33
2022-11-16T06:41:29.969Z,256.41
2022-11-16T06:42:25.449Z,254.62
2022-11-16T06:43:20.750Z,250.15
2022-11-16T06:44:16.326Z,247.89
2022-11-16T06:45:11.515Z,249.77
2022-11-16T06:46:06.873Z,247.33
2022-11-16T06:47:02.356Z,248.64
2022-11-16T06:47:57.596Z,249.21
2022-11-16T06:48:52.993Z,250.54
2022-11-16T06:49:48.363Z,249.77
2022-11-16T06:50:43.722Z,248.64
2022-11-16T06:51:39.053Z,252.08
2022-11-16T06:52:34.582Z,250.73
2022-11-16T06:53:29.809Z,249.96
2022-11-16T06:54:25.151Z,249.96
2022-11-16T06:55:20.530Z,254.03
2022-11-16T06:56:15.871Z,258.63
2022-11-16T06:57:11.197Z,258.23
2022-11-16T06:58:06.583Z,251.69
2022-11-16T06:59:01.960Z,174.37
2022-11-16T06:59:57.299Z,124.81
2022-11-16T07:00:52.659Z,110.29
2022-11-16T07:01:48.065Z,98.10
2022-11-16T07:02:43.509Z,97.36
2022-11-16T07:03:38.831Z,99.15
2022-11-16T07:04:34.017Z,104.17
2022-11-16T07:05:29.497Z,106.63
2022-11-16T07:06:24.832Z,111.18
2022-11-16T07:07:20.394Z,118.35
2022-11-16T07:08:15.703Z,120.92
2022-11-16T07:09:11.132Z,125.94
2022-11-16T07:10:06.520Z,136.34
2022-11-16T07:11:04.354Z,143.12
2022-11-16T07:11:57.508Z,151.02
2022-11-16T07:12:53.050Z,156.54
2022-11-16T07:13:48.304Z,163.44
2022-11-16T07:14:43.699Z,172.57
2022-11-16T07:15:39.183Z,182.18
2022-11-16T07:16:34.519Z,186.15
2022-11-16T07:17:29.964Z,193.39
2022-11-16T07:18:25.215Z,201.84
2022-11-16T07:19:20.603Z,205.63
2022-11-16T07:20:15.991Z,210.24
2022-11-16T07:21:11.421Z,214.93
2022-11-16T07:22:06.942Z,216.34
2022-11-16T07:23:02.329Z,216.63
2022-11-16T07:23:57.731Z,217.20
2022-11-16T07:24:53.675Z,219.23
2022-11-16T07:25:48.541Z,221.45
2022-11-16T07:26:43.967Z,224.33
2022-11-16T07:27:39.419Z,225.56
2022-11-16T07:28:35.138Z,226.65
2022-11-16T07:29:31.337Z,229.03
2022-11-16T07:30:25.876Z,232.27
2022-11-16T07:31:21.335Z,233.93
2022-11-16T07:32:16.766Z,235.44
2022-11-16T07:33:12.187Z,237.65
2022-11-16T07:34:07.887Z,239.21
2022-11-16T07:35:03.192Z,243.11
2022-11-16T07:35:58.626Z,244.38
2022-11-16T07:36:54.061Z,241.50
2022-11-16T07:37:49.484Z,243.11
2022-11-16T07:38:45.097Z,247.33
2022-11-16T07:39:40.422Z,248.64
2022-11-16T07:40:35.892Z,235.10
2022-11-16T07:41:31.388Z,219.23
2022-11-16T07:42:26.845Z,227.12
2022-11-16T07:43:22.372Z,238.34
2022-11-16T07:44:17.944Z,246.58
2022-11-16T07:45:13.242Z,253.44
2022-11-16T07:46:44.784Z,256.81
2022-11-16T07:47:05.153Z,258.23
2022-11-16T07:47:59.768Z,260.27
2022-11-16T07:48:55.097Z,262.36
2022-11-16T07:49:50.700Z,259.04
2022-11-16T07:50:46.226Z,259.86
2022-11-16T07:51:41.504Z,256.01
2022-11-16T07:52:36.935Z,249.02
2022-11-16T07:53:32.414Z,253.44
2022-11-16T07:54:27.977Z,253.05
2022-11-16T07:55:23.396Z,252.85
2022-11-16T07:56:18.828Z,249.58
2022-11-16T07:57:14.389Z,251.88
2022-11-16T07:58:09.874Z,254.42
2022-11-16T07:59:05.143Z,256.81
2022-11-16T08:00:00.579Z,254.82
2022-11-16T08:00:55.988Z,260.27
2022-11-16T08:01:51.511Z,264.68
2022-11-16T08:02:46.820Z,267.49
2022-11-16T08:03:42.536Z,270.35
2022-11-16T08:04:37.838Z,268.80
2022-11-16T08:05:33.297Z,267.71
2022-11-16T08:06:29.636Z,269.24
2022-11-16T08:07:24.448Z,272.83
2022-11-16T08:08:19.773Z,272.15
2022-11-16T08:09:15.361Z,273.05
2022-11-16T08:10:10.828Z,276.04
2022-11-16T08:11:06.193Z,271.92
2022-11-16T08:12:01.827Z,265.97
2022-11-16T08:12:57.689Z,266.84
2022-11-16T08:13:52.880Z,261.94
2022-11-16T08:14:49.779Z,255.41
2022-11-16T08:15:43.843Z,243.83
2022-11-16T08:16:39.327Z,241.32
2022-11-16T08:17:34.879Z,240.44
2022-11-16T08:18:30.410Z,245.29
2022-11-16T08:19:25.852Z,246.95
2022-11-16T08:20:21.300Z,251.69
2022-11-16T08:21:16.738Z,252.46
2022-11-16T08:22:12.196Z,251.50
2022-11-16T08:23:07.688Z,251.88
2022-11-16T08:24:02.974Z,252.66
2022-11-16T08:24:58.554Z,256.21
2022-11-16T08:25:53.815Z,258.02
2022-11-16T08:26:49.367Z,259.45
2022-11-16T08:27:44.648Z,262.78
2022-11-16T08:28:40.073Z,265.76
2022-11-16T08:29:35.515Z,267.93
2022-11-16T08:30:30.921Z,267.49
2022-11-16T08:31:26.365Z,268.80
2022-11-16T08:32:21.744Z,269.91
2022-11-16T08:33:17.164Z,272.37
2022-11-16T08:34:12.573Z,270.80
2022-11-16T08:35:08.140Z,272.15
2022-11-16T08:36:03.557Z,275.11
2022-11-16T08:36:59.032Z,247.33
2022-11-16T08:37:54.602Z,246.95
2022-11-16T08:38:50.056Z,244.74
2022-11-16T08:39:45.478Z,210.24
2022-11-16T08:40:40.921Z,205.63
2022-11-16T08:41:36.343Z,215.77
2022-11-16T08:42:32.127Z,225.41
2022-11-16T08:43:27.169Z,234.93
2022-11-16T08:44:22.578Z,243.47
2022-11-16T08:45:17.968Z,250.73
2022-11-16T08:46:13.371Z,254.23
2022-11-16T08:47:08.812Z,257.82
2022-11-16T08:48:04.482Z,261.94
2022-11-16T08:49:00.213Z,264.05
2022-11-16T08:49:55.027Z,261.10
2022-11-16T08:51:15.800Z,260.07
2022-11-16T08:51:46.998Z,251.50
2022-11-16T08:52:41.356Z,240.79
2022-11-16T08:53:36.933Z,234.43
2022-11-16T08:54:32.261Z,234.76
2022-11-16T08:55:27.914Z,236.62
2022-11-16T08:56:23.163Z,236.80
2022-11-16T08:57:18.582Z,236.97
2022-11-16T08:58:14.030Z,237.48
2022-11-16T08:59:09.459Z,236.97
2022-11-16T09:00:05.165Z,239.56
2022-11-16T09:01:00.337Z,240.09
2022-11-16T09:01:55.936Z,239.21
2022-11-16T09:02:51.133Z,241.15
2022-11-16T09:03:46.644Z,245.29
2022-11-16T09:04:42.249Z,247.70
2022-11-16T09:05:37.907Z,251.50
2022-11-16T09:06:33.232Z,256.41
2022-11-16T09:07:29.488Z,254.03
2022-11-16T09:08:24.137Z,251.69
2022-11-16T09:09:19.844Z,232.43
2022-11-16T09:10:15.133Z,240.97
2022-11-16T09:11:10.488Z,255.81
2022-11-16T09:12:05.950Z,259.04
2022-11-16T09:13:01.561Z,268.80
2022-11-16T09:13:57.104Z,258.43
2022-11-16T09:14:52.497Z,274.20
2022-11-16T09:15:48.240Z,286.65
2022-11-16T09:16:43.376Z,282.94
2022-11-16T09:17:38.767Z,272.83
2022-11-16T09:18:34.606Z,265.97
2022-11-16T09:19:29.841Z,252.08
2022-11-16T09:20:25.325Z,247.51
2022-11-16T09:21:20.816Z,254.42
2022-11-16T09:22:16.574Z,271.47
2022-11-16T09:23:11.726Z,270.80
2022-11-16T09:24:07.355Z,271.25
2022-11-16T09:25:02.692Z,277.21
2022-11-16T09:25:58.033Z,271.47
2022-11-16T09:26:53.456Z,278.38
2022-11-16T09:27:49.084Z,275.35
2022-11-16T09:28:44.462Z,267.27
2022-11-16T09:29:39.960Z,257.62
2022-11-16T09:30:35.414Z,251.30
2022-11-16T09:31:31.757Z,245.29
2022-11-16T09:32:26.291Z,236.45
2022-11-16T09:33:21.818Z,231.94
2022-11-16T09:34:17.102Z,222.35
2022-11-16T09:35:12.611Z,219.38
2022-11-16T09:36:07.897Z,227.60
2022-11-16T09:37:03.460Z,224.79
2022-11-16T09:37:58.829Z,221.90
2022-11-16T09:39:50.786Z,235.27
2022-11-16T09:40:45.304Z,233.93
2022-11-16T09:41:40.738Z,227.76
2022-11-16T09:42:36.284Z,222.05
2022-11-16T09:43:32.141Z,214.50
2022-11-16T09:44:27.184Z,211.46
2022-11-16T09:45:22.699Z,213.11
2022-11-16T09:46:18.220Z,210.38
2022-11-16T09:47:13.747Z,204.22
2022-11-16T09:48:09.116Z,204.10
2022-11-16T09:49:04.916Z,206.28
2022-11-16T09:50:03.532Z,213.25
2022-11-16T09:50:55.804Z,207.45
2022-11-16T09:51:51.274Z,198.78
2022-11-16T09:52:46.793Z,207.58
2022-11-16T09:53:42.199Z,210.51
2022-11-16T09:54:37.655Z,212.15
2022-11-16T09:55:33.138Z,214.50
2022-11-16T09:56:28.574Z,212.56
2022-11-16T09:57:24.204Z,208.37
2022-11-16T09:58:19.508Z,206.54
2022-11-16T09:59:18.091Z,205.89
2022-11-16T10:00:10.414Z,203.21
2022-11-16T10:01:05.946Z,197.82
2022-11-16T10:02:01.254Z,189.15
2022-11-16T10:02:56.740Z,180.40
2022-11-16T10:03:52.062Z,173.11
2022-11-16T10:04:47.498Z,175.66
2022-11-16T10:05:43.069Z,180.99
2022-11-16T10:06:38.800Z,181.58
2022-11-16T10:07:33.995Z,183.78
2022-11-16T10:08:29.476Z,186.89
2022-11-16T10:09:24.712Z,190.25
2022-11-16T10:10:20.085Z,194.31
2022-11-16T10:11:15.611Z,196.16
2022-11-16T10:12:11.319Z,197.11
2022-11-16T10:13:06.579Z,198.66
2022-11-16T10:14:04.440Z,202.09
2022-11-16T10:14:57.419Z,203.72
2022-11-16T10:15:52.836Z,201.09
2022-11-16T10:16:48.470Z,198.54
2022-11-16T10:17:43.787Z,196.28
2022-11-16T10:18:39.365Z,196.16
2022-11-16T10:19:34.927Z,196.28
2022-11-16T10:20:31.065Z,195.12
2022-11-16T10:21:25.709Z,192.93
2022-11-16T10:22:21.032Z,190.47
2022-11-16T10:23:16.441Z,188.83
2022-11-16T10:24:11.912Z,191.81
2022-11-16T10:25:07.316Z,193.62
2022-11-16T10:26:03.283Z,195.46
2022-11-16T10:26:58.155Z,198.18
2022-11-16T10:27:53.573Z,200.73
2022-11-16T10:28:49.110Z,204.48
2022-11-16T10:29:44.434Z,209.97
2022-11-16T10:30:39.868Z,209.30
2022-11-16T10:31:35.583Z,202.21
2022-11-16T10:32:30.983Z,198.54
2022-11-16T10:33:26.600Z,195.23
2022-11-16T10:34:21.930Z,193.73
2022-11-16T10:35:17.411Z,198.54
2022-11-16T10:36:12.884Z,206.67
2022-11-16T10:37:08.583Z,207.58
2022-11-16T10:38:03.886Z,212.56
2022-11-16T10:38:59.173Z,216.63
2022-11-16T10:39:54.601Z,219.38
2022-11-16T10:40:50.009Z,221.60
2022-11-16T10:41:45.440Z,223.41
2022-11-16T10:42:40.912Z,218.36
2022-11-16T10:43:36.594Z,218.07
2022-11-16T10:44:31.725Z,227.91
2022-11-16T10:45:27.407Z,223.72
2022-11-16T10:46:22.995Z,219.38
2022-11-16T10:47:18.973Z,219.82
2022-11-16T10:48:13.906Z,222.50
2022-11-16T10:49:09.188Z,222.81
2022-11-16T10:50:05.361Z,225.41
2022-11-16T10:51:00.538Z,226.50
2022-11-16T10:51:55.396Z,229.03
2022-11-16T10:52:50.987Z,234.26
2022-11-16T10:53:46.287Z,236.62
2022-11-16T10:54:44.417Z,238.34
2022-11-16T10:55:37.101Z,236.11
2022-11-16T10:56:32.514Z,228.87
2022-11-16T10:57:27.922Z,220.41
2022-11-16T10:58:23.359Z,228.23
2022-11-16T10:59:18.783Z,239.74
2022-11-16T11:00:18.303Z,241.15
2022-11-16T11:01:10.858Z,237.48
2022-11-16T11:02:05.182Z,240.97
2022-11-16T11:03:00.706Z,245.11
2022-11-16T11:03:56.031Z,257.82
2022-11-16T11:04:51.484Z,271.25
2022-11-16T11:05:47.030Z,275.11
2022-11-16T11:06:42.481Z,251.69
2022-11-16T11:07:37.973Z,252.85
2022-11-16T11:08:33.581Z,256.61
2022-11-16T11:09:29.544Z,238.34
2022-11-16T11:10:24.177Z,238.00
2022-11-16T11:11:19.641Z,258.02
2022-11-16T11:12:15.048Z,263.83
2022-11-16T11:13:10.476Z,276.74
2022-11-16T11:14:06.022Z,279.81
2022-11-16T11:15:01.290Z,276.97
2022-11-16T11:15:56.756Z,281.97
2022-11-16T11:16:52.345Z,280.05
2022-11-16T11:17:47.904Z,266.40
2022-11-16T11:18:43.207Z,255.41
2022-11-16T11:19:38.721Z,253.64
2022-11-16T11:20:34.875Z,263.83
2022-11-16T11:21:29.609Z,280.77
2022-11-16T11:22:24.934Z,287.40
2022-11-16T11:23:20.365Z,290.71
2022-11-16T11:24:43.403Z,300.02
2022-11-16T11:25:12.152Z,297.30
2022-11-16T11:26:06.674Z,298.65
2022-11-16T11:27:02.174Z,305.32
2022-11-16T11:27:57.604Z,309.06
2022-11-16T11:28:53.136Z,309.94
2022-11-16T11:29:48.483Z,283.68
2022-11-16T11:30:44.130Z,282.70
2022-11-16T11:31:39.558Z,288.67
2022-11-16T11:32:35.016Z,284.42
2022-11-16T11:33:30.445Z,267.27